Турецкий Boeing 737-800 выскользнул с ВПП во Львове

Boeing 737-8F2WL авиакомпании Turkish Airlines соскользнул со взлётно-посадочной полосы аэропорта Львова при подготовке ко взлёту.

Инцидент произошёл в 10:25 по местному времени 6-го января. На борту было 59 пассажиров и 6 членов экипажа.

Выполнявший рейс TK442 из Львова (LWO) в Стамбул (IST) самолёт двигался по ВПП 31 в направлении к разворотной площадке в месте примыкания рулёжной дорожки №8 (которая закрыта, вследствие чего авиалайнеры и разворачиваются на самой полосе). Достигнув места разворота и приступив к маневру, авиалайнер съехал влево, получив незначительные повреждения.

Пассажиры и экипаж были эвакуированы через аварийные выходы, пострадавших нет.

Самолёт (собственное имя Bağcılar; поставлен авиакомпании 3 февраля 2016 года и нигде более не эксплуатировался) был отбуксирован к месту стоянки лишь через четыре часа после происшествия, что вызвало массовые задержки рейсов в и из аэропорта.

Погодные условия на момент инцидента: ССЗ ветер 7 м/с, снег, горизонтальная видимость 2 900 метров, сплошная облачность на высоте около 400 метров.

Boeing 737-8F2WL авиакомпании Turkish Airlines
Boeing 737-8F2WL авиакомпании Turkish Airlines 6 января 2019 года соскользнул с ВПП 31 в аэропорту Львова (LWO)
Boeing 737-8F2WL авиакомпании Turkish Airlines
Самолёт выполнял рейс TK442, на борту было 59 пассажиров и 6 членов экипажа
Boeing 737-8F2WL авиакомпании Turkish Airlines
Аварийная эвакуация прошла успешно, пострадавших нет; самолёт получил незначительные повреждения, но оставался на обочине полосы в течение четырёх часов

Показания METAR:

UKLL 060930Z 33006MPS 3800 -SN OVC014 M06/M08 Q1015 R31/590326 TEMPO 2100 -SHSN BKN007 BKN020CB=
UKLL 060900Z 33006MPS 2800 -SN OVC012 M06/M08 Q1015 R31/590326 TEMPO 2100 -SHSN BKN007 BKN020CB=
UKLL 060830Z 33007MPS 2900 -SN OVC014 M06/M09 Q1014 R31/590326 TEMPO 2100 -FZRASN BKN007 BKN020CB=
UKLL 060800Z 34006MPS 2900 -SN OVC014 M07/M09 Q1014 R31/520526 TEMPO 2100 -FZRASN BKN007 BKN020CB=
UKLL 060730Z 34006MPS 2900 -SN OVC012 M07/M09 Q1014 R31/420533 TEMPO -FZRASN BKN020CB=
UKLL 060729Z 34006MPS 2800 -SN OVC012 M07/M09 Q1014 R31/420533 TEMPO -FZRASN BKN020CB=
UKLL 060719Z 34006MPS 3500 -SN OVC013 M06/M09 Q1014 R31/420533 TEMPO -FZRASN BKN020CB=
UKLL 060700Z 34006MPS 9999 -SN OVC012 M06/M09 Q1013 R31/420528 TEMPO -FZRASN BKN020CB=

Ещё на эту тему

Boeing 737-900ER поскользнулся на рулёжной дорожке в Цинциннати Boeing 737-932ERWL (рег. номер N871DN) авиакомпании Delta Air Lines (DL), выполнявший рейс DL1708 из Лас-Вегаса (LAS) в Цинциннати (CVG), выкатился с рулёжной дорожки после посадки. Инцидент произошёл 13 января в 05:25 по местному времени. Пассажи...
Boeing 737-900ER выкатился на снег в Шереметьево Boeing 737-9GJERWL авиакомпании Travel Service (QS) соскользнул со взлётно-посадочной полосы аэропорта Шереметьево при подготовке ко взлёту. Инцидент произошёл в 14:16 по местному времени 13-го января. На борту было 40 пассажиров и 7 членов экипаж...
У индийского Boeing 737-800 отказала гидравлика Boeing 737-800 авиакомпании Air India Express, вылетевший из Мумбаи (BOM) в Дубай (DXB), прервал полёт из-за отказа гидравлики. 6 января во время выполнения рейса IX247 после взлёта с ВПП 32 экипаж остановил набор высоты на FL270 (8 230 метров) из...
Мексиканский Boeing 737-800 стёр шасси об асфальт Boeing 737-800 авиакомпании Aeroméxico (AM) при посадке после нормального полёта стёр основные шасси. Инцидент произошёл 3 января в 10:54 по местному времени; на борту было 145 пассажиров и 6 членов экипажа. Выполнявший рейс AM120 из Мехико (ME...
Эфиопский Boeing 737-800 почти добежал до озера Виктория Boeing 737-800 авиакомпании Ethiopian Airlines (ET) перебежал полосу при посадке в аэропорту Энтеббе и остановился в нескольких метрах от берега озера Виктория. Инцидент произошёл ночью 3 января - в 00:38 по местному времени; на борту было 133 пас...
EMAS успешно предотвратил катастрофу В Лос-Анджелесе система аварийного торможения на взлётно-посадочной полосе предотвратила катастрофу не успевшего вовремя затормозить самолёта. Подробности Рейс WN278 авиакомпании Southwest Airlines (WN) прибыл из Окленда в аэропорт Голливуд Бёрбанк...
Boeing 737-800 утонул в Микронезии Boeing 737-8BKWL авиакомпании Air Niugini (PX) в пятницу, 28 сентября, совершил посадку на воду при попытке приземления в международном аэропорту Чуук (TKK) города Вено в Микронезии. Самолёт оказался в лагуне примерно в 145 метрах от берега. Все 3...
Разрушение в полёте двигателя у Boeing 737-700 привело к смерти пассажира Boeing 737-700 авиакомпании Southwest Airlines (WN) был вынужден совершить аварийную посадку вскоре после вылета из Нью-Йорка ввиду разрушения двигателя. Один пассажир умер после госпитализации - предположительно, от ранений осколками, пробившими ...
Boeing 737-800 спустился к морю в Трабзоне Boeing 737-82RWL авиакомпании Pegasus Airlines (H9) перебежал полосу во время посадки в аэропорту Трабзона. Из находившихся на борту 6 членов экипажа и 162 пассажиров никто серьёзно не пострадал. Авиалайнер (прибыл в Pegasus напрямую от производит...
Boeing 737-800 соскользнул с полосы при посадке Boeing 737-8H6WL авиакомпании Malaysia Airlines (MH), выполнявший внутренний рейс MH2718 из Куала-Лумпура (KUL), соскользнул с полосы при посадке в аэропорту Сибу (SBW). Самолёт приземлился на взлетно-посадочной полосе Сибу 13/31 под сильным дождё...
Turkish Airlines потеряли 100 миллионов лир из-за снега Airbus A321-200 авиакомпании Turkish Airlines в заснеженном аэропорту Стамбул Ататюрк; фото AP Turkish Airlines (TK) отменила 463 внутренних и международных рейса в аэропортах Стамбула из-за обильного снегопада, стартовавшего с утра 26-го января....
Boeing 747 упал на дачи Бишкека Boeing 747-412F авиакомпании ACT Airlines, потерпевший крушение в Бишкеке, садится в аэропорту Гонконга в июне 2016 года Грузовой самолёт Boeing 747-412F авиакомпании ACT Airlines (MyCargo Airlines; IATA: 9T) разбился при заходе на посадку в 1,5 ...